Clovis, CA (93613)

9:32 AM PDT on June 03, 2015 (GMT -0700)
Shaw & Temarance | | Change Station
CLOSE
Current Station
Personal Weather Station
Location: Clovis, CA
Elevation: 387 ft
Nearby Weather Stations

Elev 387 ft 36.80 °N, 119.66 °W | Updated 1 minute ago

Clear
Clear
73.7 °F
Feels Like 77 °F
N
1.0
Wind Variable Wind from NW
Gusts 6.0 mph

Today
High -- | Low -- °F
--% Chance of Precip.
Yesterday
High -- | Low -- °F
Precip. -- in
5:40 AM 8:13 PM
Full, 99% visible
Pressure 29.90 in
Visibility 10.0 miles
Clouds Few 6500 ft
Few 20000 ft
Heat Index 77 °F
Dew Point 50 °F
Humidity 44%
Rainfall 0.00 in
Snow Depth Not available.
UV 4 out of 12
Pollen 5.10 out of 12
Air Quality Not available.
Flu Activity Sporadic
METAR KFAT 031553Z 33006KT 10SM FEW065 FEW200 22/09 A2990 RMK AO2 SLP123 CLDS TPG MTNS DSNT E-S T02170089

More Conditions Fewer Conditions

Pressure 29.90 in
Visibility 10.0 miles
Clouds Few 6500 ft
Few 20000 ft
Heat Index 77 °F
Dew Point 50 °F
Humidity 44%
Rainfall 0.00 in
Snow Depth Not available.
UV 4 out of 12
Pollen 5.10 out of 12
Air Quality Not available.
Flu Activity Sporadic
METAR KFAT 031553Z 33006KT 10SM FEW065 FEW200 22/09 A2990 RMK AO2 SLP123 CLDS TPG MTNS DSNT E-S T02170089

More Conditions Fewer Conditions

10-Day Weather Forecast

×

Almanac

Astronomy

Jun. 03, 2015 Rise Set
Actual Time
Civil Twilight
Nautical Twilight
Astronomical Twilight
Moon
Length of Visible Light
Length of Day
Tomorrow will be .
, % of the Moon is Illuminated

Today's Extremes

State Highs State Lows

Community

WunderPhotos

Upload Photos

1,826,254 photos uploaded!

WunderBlogs® & News

Nearby

Air Quality

  Air Quality AQ Index Pollutant
Not available.

Snow Depth

Station Depth Elevation

Earthquake Activity

City Distance Mag. Time & Date
Minimum magnitude displayed is 2.5.

Coastal Water Temperatures

Place Temperature

Stations

Nearby Weather Stations

Station Location Temp. Windchill Dew Point Humidity Wind Precip. Elev Updated Type